Time;durP1;ratioP1;P1;durP2;ratioP2;P2;SDS_P1;SDS_P2;PMS_P1;PMS_P2;Temp;Humidity;BMP_temperature;BMP_pressure;BME280_temperature;BME280_humidity;BME280_pressure;Samples;Min_cycle;Max_cycle;Signal;HPM_P1;HPM_P2
2021/10/19 00:02:16;;;;;;;44.40;22.52;;;7.80;92.40;;;;;;5003351;28;20274;-71
2021/10/19 00:04:42;;;;;;;49.03;21.85;;;7.80;92.40;;;;;;5001874;28;20089;-71
2021/10/19 00:07:08;;;;;;;46.47;22.35;;;7.80;92.30;;;;;;5003305;28;20029;-71
2021/10/19 00:09:33;;;;;;;42.65;19.95;;;7.80;92.30;;;;;;5003302;28;20026;-71
2021/10/19 00:11:59;;;;;;;45.55;21.10;;;7.70;92.40;;;;;;5001868;28;20340;-71
2021/10/19 00:14:25;;;;;;;42.72;21.00;;;7.70;92.50;;;;;;5002861;28;20061;-71
2021/10/19 00:16:51;;;;;;;47.35;20.60;;;7.70;92.50;;;;;;5003058;28;20029;-71
2021/10/19 00:19:17;;;;;;;42.67;20.45;;;7.70;92.30;;;;;;5001829;28;20301;-71
2021/10/19 00:21:43;;;;;;;42.83;20.67;;;7.70;92.30;;;;;;5002010;28;20089;-71
2021/10/19 00:24:09;;;;;;;43.95;20.02;;;7.60;92.40;;;;;;5001742;28;20276;-71
2021/10/19 00:26:34;;;;;;;41.90;19.33;;;7.60;92.50;;;;;;5001591;28;20078;-71
2021/10/19 00:29:00;;;;;;;44.90;21.33;;;7.60;92.50;;;;;;5001842;28;20023;-71
2021/10/19 00:31:26;;;;;;;42.45;19.38;;;7.50;92.60;;;;;;5002935;28;20086;-71
2021/10/19 00:33:52;;;;;;;42.97;20.80;;;7.50;92.60;;;;;;5002590;28;20034;-71
2021/10/19 00:36:17;;;;;;;43.30;19.77;;;7.50;92.50;;;;;;5016271;28;20084;-71
2021/10/19 00:38:43;;;;;;;45.95;19.88;;;7.50;92.50;;;;;;5022371;28;20029;-72
2021/10/19 00:41:09;;;;;;;47.33;20.63;;;7.50;92.50;;;;;;5021134;28;20033;-71
2021/10/19 00:43:35;;;;;;;45.15;19.90;;;7.40;92.70;;;;;;5021131;28;20037;-71
2021/10/19 00:46:00;;;;;;;45.85;19.58;;;7.40;92.70;;;;;;5022398;28;20056;-71
2021/10/19 00:48:28;;;;;;;45.33;19.92;;;7.40;92.70;;;;;;5021175;28;20316;-71
2021/10/19 00:50:54;;;;;;;43.97;19.17;;;7.30;92.60;;;;;;5021369;28;20251;-71
2021/10/19 00:53:20;;;;;;;43.17;19.80;;;7.30;92.60;;;;;;5004805;28;20013;-72
2021/10/19 00:55:46;;;;;;;44.47;19.48;;;7.30;92.40;;;;;;5022093;28;20221;-72
2021/10/19 00:58:12;;;;;;;42.38;19.00;;;7.30;92.40;;;;;;5004754;28;20018;-72
2021/10/19 01:00:38;;;;;;;41.67;18.37;;;7.20;92.00;;;;;;4989851;28;20076;-71
2021/10/19 01:03:04;;;;;;;39.95;19.33;;;7.20;92.10;;;;;;5024880;28;20272;-72
2021/10/19 01:05:30;;;;;;;41.90;19.30;;;7.20;92.00;;;;;;5018370;28;20022;-72
2021/10/19 01:07:55;;;;;;;40.80;20.00;;;7.20;92.00;;;;;;5005461;28;20033;-71
2021/10/19 01:10:21;;;;;;;38.55;16.90;;;7.10;92.20;;;;;;5005511;28;20030;-72
2021/10/19 01:12:47;;;;;;;41.70;19.80;;;7.00;92.50;;;;;;5006320;28;20060;-72
2021/10/19 01:15:16;;;;;;;44.30;19.98;;;7.00;92.40;;;;;;5005151;28;20038;-72
2021/10/19 01:17:47;;;;;;;39.13;17.65;;;7.00;92.50;;;;;;5005228;28;20030;-72
2021/10/19 01:20:29;;;;;;;46.35;18.70;;;7.00;92.50;;;;;;5005224;28;20325;-72
2021/10/19 01:22:55;;;;;;;42.10;19.67;;;7.00;92.40;;;;;;5005053;28;20026;-71
2021/10/19 01:25:23;;;;;;;42.55;18.75;;;7.00;92.50;;;;;;5005132;28;20065;-72
2021/10/19 01:28:02;;;;;;;40.75;17.45;;;6.90;92.50;;;;;;5004689;28;20056;-71
2021/10/19 01:30:28;;;;;;;44.60;20.05;;;6.80;92.50;;;;;;4990639;28;20221;-71
2021/10/19 01:32:54;;;;;;;39.92;19.52;;;6.70;92.70;;;;;;5004991;28;20224;-71
2021/10/19 01:35:34;;;;;;;45.97;18.77;;;6.70;92.80;;;;;;4988783;28;20101;-72
2021/10/19 01:38:00;;;;;;;39.42;17.45;;;6.70;92.70;;;;;;5038945;23;20037;-74
2021/10/19 01:40:25;;;;;;;44.72;18.98;;;6.70;92.80;;;;;;5035377;28;20200;-74
2021/10/19 01:42:51;;;;;;;40.05;18.23;;;6.70;92.90;;;;;;5044613;28;20040;-73
2021/10/19 01:45:18;;;;;;;47.95;20.92;;;6.70;92.90;;;;;;5043501;28;20076;-73
2021/10/19 01:47:44;;;;;;;43.47;18.45;;;6.80;92.90;;;;;;5025901;28;20350;-74
2021/10/19 01:50:12;;;;;;;45.03;19.00;;;6.80;92.80;;;;;;5023601;28;20224;-73
2021/10/19 01:52:38;;;;;;;42.95;18.42;;;6.80;92.80;;;;;;5007320;28;20217;-73
2021/10/19 01:55:05;;;;;;;45.70;19.00;;;6.80;93.00;;;;;;5023632;28;20049;-74
2021/10/19 01:57:31;;;;;;;46.63;20.42;;;6.90;93.10;;;;;;5023911;28;20037;-73
2021/10/19 01:59:58;;;;;;;41.60;18.50;;;6.90;93.00;;;;;;5024948;28;20103;-73
2021/10/19 02:02:23;;;;;;;44.40;18.87;;;6.90;93.10;;;;;;5023784;28;20409;-73
2021/10/19 02:04:49;;;;;;;41.75;19.02;;;6.90;93.20;;;;;;5024567;28;20026;-73
2021/10/19 02:07:15;;;;;;;46.72;18.33;;;6.80;93.20;;;;;;5023302;28;20037;-73
2021/10/19 02:09:41;;;;;;;39.47;18.13;;;6.80;93.10;;;;;;5024847;28;20030;-73
2021/10/19 02:12:07;;;;;;;43.10;17.92;;;6.90;93.00;;;;;;5023488;28;20468;-74
2021/10/19 02:14:32;;;;;;;39.95;18.50;;;6.90;92.80;;;;;;5023347;28;20077;-73
2021/10/19 02:16:58;;;;;;;43.85;20.45;;;6.90;92.90;;;;;;5023370;28;20041;-74
2021/10/19 02:19:26;;;;;;;43.38;18.20;;;6.90;92.90;;;;;;5024646;28;20111;-73
2021/10/19 02:21:55;;;;;;;44.22;18.27;;;6.90;92.80;;;;;;5023407;28;20025;-73
2021/10/19 02:24:21;;;;;;;39.80;18.15;;;6.90;92.90;;;;;;5023118;28;20056;-74
2021/10/19 02:26:47;;;;;;;41.67;19.05;;;6.90;92.90;;;;;;5024667;28;20030;-74
2021/10/19 02:29:14;;;;;;;39.92;17.40;;;6.90;93.00;;;;;;5023491;28;20029;-73
2021/10/19 02:31:40;;;;;;;42.47;17.33;;;7.00;92.70;;;;;;5007828;28;20097;-73
2021/10/19 02:34:06;;;;;;;42.17;18.73;;;6.90;92.60;;;;;;5023389;28;20041;-73
2021/10/19 02:36:33;;;;;;;45.03;17.38;;;6.90;92.70;;;;;;5023296;28;20034;-74
2021/10/19 02:39:04;;;;;;;36.58;18.42;;;6.90;92.70;;;;;;5023314;28;20362;-73
2021/10/19 02:41:33;;;;;;;42.65;18.13;;;6.90;92.80;;;;;;5024267;28;20064;-74
2021/10/19 02:43:59;;;;;;;36.88;17.20;;;6.90;92.80;;;;;;5007185;28;20032;-73
2021/10/19 02:46:25;;;;;;;43.00;17.85;;;6.90;92.70;;;;;;5023159;28;20014;-73
2021/10/19 02:48:52;;;;;;;39.90;17.30;;;6.90;92.70;;;;;;5023028;28;20340;-73
2021/10/19 02:51:18;;;;;;;39.78;19.17;;;6.90;92.80;;;;;;5023170;28;20029;-73
2021/10/19 02:53:44;;;;;;;42.22;18.35;;;6.80;92.80;;;;;;5022649;28;20081;-73
2021/10/19 02:56:10;;;;;;;44.83;19.33;;;6.90;92.90;;;;;;5023068;28;20105;-73
2021/10/19 02:58:36;;;;;;;39.83;16.83;;;6.90;93.00;;;;;;5023294;28;20124;-74
2021/10/19 03:01:01;;;;;;;34.85;18.05;;;6.90;92.90;;;;;;4991015;28;20028;-74
2021/10/19 03:03:27;;;;;;;45.20;17.70;;;6.90;92.70;;;;;;5024248;28;20025;-73
2021/10/19 03:05:54;;;;;;;43.17;18.30;;;6.90;92.70;;;;;;5023590;28;20025;-73
2021/10/19 03:08:20;;;;;;;40.22;18.50;;;6.90;92.70;;;;;;5023728;28;20025;-73
2021/10/19 03:10:45;;;;;;;36.67;17.50;;;6.90;92.70;;;;;;5024483;28;20088;-73
2021/10/19 03:13:11;;;;;;;40.83;16.55;;;6.90;92.70;;;;;;5023994;28;20030;-73
2021/10/19 03:15:37;;;;;;;39.50;17.33;;;6.90;92.90;;;;;;5023193;28;20026;-73
2021/10/19 03:18:03;;;;;;;40.33;17.20;;;6.90;92.90;;;;;;5022580;28;20026;-73
2021/10/19 03:20:30;;;;;;;42.03;16.95;;;6.90;92.90;;;;;;5022528;28;20093;-73
2021/10/19 03:22:57;;;;;;;35.20;16.65;;;6.90;93.00;;;;;;5021573;28;20379;-73
2021/10/19 03:25:22;;;;;;;37.15;16.42;;;6.90;92.90;;;;;;5006198;28;20328;-73
2021/10/19 03:27:48;;;;;;;39.58;17.52;;;6.90;92.90;;;;;;5023429;28;20084;-73
2021/10/19 03:30:14;;;;;;;39.50;16.25;;;6.90;93.10;;;;;;5022726;28;20037;-73
2021/10/19 03:32:40;;;;;;;39.30;17.40;;;6.90;93.00;;;;;;5022674;28;20033;-73
2021/10/19 03:35:06;;;;;;;42.10;18.52;;;6.90;93.10;;;;;;5021960;28;20101;-73
2021/10/19 03:37:32;;;;;;;37.75;16.58;;;6.90;93.10;;;;;;5004682;28;20045;-73
2021/10/19 03:39:58;;;;;;;33.10;17.25;;;6.90;93.00;;;;;;5021798;28;20117;-73
2021/10/19 03:42:24;;;;;;;39.03;16.70;;;6.90;93.10;;;;;;5023107;28;20225;-73
2021/10/19 03:44:50;;;;;;;34.50;15.85;;;6.90;93.00;;;;;;5022799;28;20017;-73
2021/10/19 03:47:16;;;;;;;36.83;16.77;;;7.00;93.00;;;;;;5021722;28;20030;-73
2021/10/19 03:49:42;;;;;;;34.42;15.00;;;7.00;93.20;;;;;;5021628;28;20343;-73
2021/10/19 03:52:08;;;;;;;34.38;17.30;;;7.00;93.20;;;;;;5022772;28;20029;-73
2021/10/19 03:54:34;;;;;;;38.88;16.48;;;7.00;93.20;;;;;;5021226;28;20024;-73
2021/10/19 03:57:00;;;;;;;34.60;14.88;;;7.00;93.10;;;;;;5021306;28;20018;-73
2021/10/19 03:59:27;;;;;;;34.22;14.55;;;7.00;93.40;;;;;;5005216;28;20042;-73
2021/10/19 04:01:53;;;;;;;33.22;16.83;;;7.00;93.40;;;;;;5021361;28;20045;-73
2021/10/19 04:04:19;;;;;;;38.50;16.48;;;7.10;93.40;;;;;;5022443;28;20018;-73
2021/10/19 04:06:45;;;;;;;32.22;15.63;;;7.10;93.50;;;;;;5022403;28;20317;-73
2021/10/19 04:09:11;;;;;;;33.25;15.82;;;7.10;93.50;;;;;;5020963;28;20039;-73
2021/10/19 04:11:36;;;;;;;33.25;15.80;;;7.10;93.50;;;;;;5022480;28;20106;-73
2021/10/19 04:14:02;;;;;;;32.30;14.80;;;7.10;93.50;;;;;;5022050;28;20034;-73
2021/10/19 04:16:28;;;;;;;38.03;17.40;;;7.20;93.60;;;;;;5021272;28;20041;-73
2021/10/19 04:18:54;;;;;;;36.15;16.70;;;7.20;93.70;;;;;;5004576;28;20264;-73
2021/10/19 04:21:20;;;;;;;36.17;16.70;;;7.20;93.70;;;;;;5021229;28;20022;-73
2021/10/19 04:23:47;;;;;;;34.60;16.33;;;7.20;93.70;;;;;;5021902;28;20018;-74
2021/10/19 04:26:13;;;;;;;30.10;14.05;;;7.20;93.80;;;;;;5022408;28;20084;-73
2021/10/19 04:28:40;;;;;;;34.88;14.77;;;7.30;93.70;;;;;;5022265;28;20017;-73
2021/10/19 04:31:06;;;;;;;36.22;15.90;;;7.30;93.80;;;;;;5021238;28;20040;-73
2021/10/19 04:33:32;;;;;;;35.92;15.55;;;7.30;93.80;;;;;;5004579;28;20304;-74
2021/10/19 04:35:58;;;;;;;31.38;13.95;;;7.30;93.80;;;;;;5020230;28;20352;-74
2021/10/19 04:38:24;;;;;;;38.25;15.43;;;7.30;93.80;;;;;;5021763;28;20052;-74
2021/10/19 04:40:50;;;;;;;34.88;15.57;;;7.30;93.90;;;;;;5022070;28;20275;-74
2021/10/19 04:43:16;;;;;;;35.00;15.98;;;7.30;93.80;;;;;;5020791;28;20022;-74
2021/10/19 04:45:41;;;;;;;39.95;17.20;;;7.20;94.00;;;;;;5021224;28;20034;-74
2021/10/19 04:48:07;;;;;;;37.10;17.13;;;7.30;94.00;;;;;;5020426;28;20312;-74
2021/10/19 04:50:34;;;;;;;39.10;15.52;;;7.30;94.00;;;;;;5022203;28;20026;-74
2021/10/19 04:53:01;;;;;;;39.10;16.00;;;7.30;94.00;;;;;;5021670;28;20022;-74
2021/10/19 04:55:27;;;;;;;37.35;15.63;;;7.30;94.10;;;;;;5004704;28;20045;-74
2021/10/19 04:57:53;;;;;;;34.47;16.00;;;7.30;94.10;;;;;;5004472;28;20084;-74
2021/10/19 05:00:19;;;;;;;39.28;16.65;;;7.30;94.10;;;;;;5021803;28;20483;-73
2021/10/19 05:02:48;;;;;;;40.10;15.93;;;7.30;94.00;;;;;;5020744;28;20073;-74
2021/10/19 05:05:15;;;;;;;40.15;17.33;;;7.40;93.90;;;;;;5020553;28;20018;-74
2021/10/19 05:07:41;;;;;;;40.60;16.98;;;7.30;94.00;;;;;;5020654;28;20017;-74
2021/10/19 05:10:07;;;;;;;42.60;16.98;;;7.30;94.10;;;;;;5004355;28;20327;-74
2021/10/19 05:12:33;;;;;;;40.78;17.95;;;7.30;94.10;;;;;;5020972;28;20030;-74
2021/10/19 05:14:59;;;;;;;36.78;15.80;;;7.30;94.10;;;;;;5004480;28;20032;-74
2021/10/19 05:17:25;;;;;;;38.97;16.50;;;7.40;94.10;;;;;;5020862;28;20088;-74
2021/10/19 05:19:50;;;;;;;36.35;16.95;;;7.40;94.00;;;;;;5020907;28;20022;-73
2021/10/19 05:22:16;;;;;;;38.55;17.80;;;7.40;94.20;;;;;;5020849;28;20038;-74
2021/10/19 05:24:42;;;;;;;35.78;17.02;;;7.30;94.10;;;;;;5020435;28;20025;-74
2021/10/19 05:27:08;;;;;;;38.88;16.05;;;7.40;94.10;;;;;;5020800;28;20371;-74
2021/10/19 05:29:34;;;;;;;34.88;14.57;;;7.40;94.00;;;;;;5021965;28;20029;-74
2021/10/19 05:32:00;;;;;;;36.95;15.68;;;7.40;94.00;;;;;;5020811;28;20124;-74
2021/10/19 05:34:25;;;;;;;39.47;16.58;;;7.40;94.30;;;;;;5020571;28;20036;-74
2021/10/19 05:36:51;;;;;;;36.13;15.48;;;7.40;93.90;;;;;;5021721;28;20261;-74
2021/10/19 05:39:18;;;;;;;37.90;16.08;;;7.40;94.00;;;;;;5020490;28;20030;-73
2021/10/19 05:41:44;;;;;;;39.30;16.75;;;7.40;94.00;;;;;;5020975;28;20018;-73
2021/10/19 05:44:10;;;;;;;36.47;16.38;;;7.40;94.20;;;;;;5019483;28;20025;-73
2021/10/19 05:46:36;;;;;;;34.20;17.55;;;7.40;94.30;;;;;;5021623;28;20030;-74
2021/10/19 05:49:02;;;;;;;38.90;15.35;;;7.50;94.20;;;;;;5023863;28;20077;-74
2021/10/19 05:51:28;;;;;;;32.63;14.37;;;7.60;93.90;;;;;;5025259;28;20037;-74
2021/10/19 05:53:54;;;;;;;31.38;14.57;;;7.50;93.90;;;;;;5023652;28;20029;-74
2021/10/19 05:56:20;;;;;;;36.30;16.20;;;7.50;94.20;;;;;;5007689;28;20068;-74
2021/10/19 05:58:45;;;;;;;34.88;15.63;;;7.50;94.00;;;;;;5023835;28;20329;-74
2021/10/19 06:01:11;;;;;;;34.83;14.80;;;7.60;93.80;;;;;;5025054;28;20061;-74
2021/10/19 06:03:37;;;;;;;30.60;14.05;;;7.50;93.80;;;;;;5024344;28;20058;-75
2021/10/19 06:06:10;;;;;;;32.60;15.77;;;7.50;93.80;;;;;;5023358;28;20026;-75
2021/10/19 06:08:36;;;;;;;38.55;15.45;;;7.50;93.90;;;;;;5023458;28;20259;-75
2021/10/19 06:11:01;;;;;;;33.60;15.77;;;7.60;94.00;;;;;;5025078;28;20054;-75
2021/10/19 06:13:27;;;;;;;35.45;14.93;;;7.60;94.00;;;;;;5024442;28;20033;-75
2021/10/19 06:15:54;;;;;;;29.25;13.73;;;7.60;93.90;;;;;;5024684;28;20193;-74
2021/10/19 06:18:20;;;;;;;;;;;7.60;94.00;;;;;;5024479;28;20029;-75
2021/10/19 06:20:49;;;;;;;34.92;14.70;;;7.60;94.00;;;;;;5040395;28;19933;-75
2021/10/19 06:23:18;;;;;;;28.48;12.52;;;7.60;93.90;;;;;;5023076;28;20026;-75
2021/10/19 06:25:45;;;;;;;32.25;14.65;;;7.60;94.00;;;;;;5024798;28;20022;-74
2021/10/19 06:28:11;;;;;;;;;;;7.60;94.00;;;;;;5023882;28;20336;-74
2021/10/19 06:30:37;;;;;;;30.40;13.00;;;7.70;94.10;;;;;;5023416;28;19911;-74
2021/10/19 06:33:03;;;;;;;33.90;14.13;;;7.70;93.90;;;;;;5023210;28;20018;-74
2021/10/19 06:35:29;;;;;;;30.98;13.35;;;7.70;93.80;;;;;;5023466;28;20315;-75
2021/10/19 06:37:55;;;;;;;29.08;14.40;;;7.70;93.70;;;;;;5022932;28;20030;-75
2021/10/19 06:40:21;;;;;;;28.02;13.98;;;7.70;93.80;;;;;;5023029;28;20032;-75
2021/10/19 06:42:47;;;;;;;31.88;13.30;;;7.70;93.80;;;;;;5023167;28;20105;-75
2021/10/19 06:45:13;;;;;;;30.40;13.80;;;7.80;94.00;;;;;;5024083;28;20022;-75
2021/10/19 06:47:39;;;;;;;27.52;13.30;;;7.80;93.80;;;;;;5023082;28;20038;-75
2021/10/19 06:50:06;;;;;;;30.38;14.32;;;7.90;93.60;;;;;;5024106;28;20029;-75
2021/10/19 06:52:33;;;;;;;30.25;13.85;;;7.90;93.80;;;;;;5022996;28;20029;-75
2021/10/19 06:54:59;;;;;;;28.80;14.30;;;7.90;93.90;;;;;;5022353;28;20572;-75
2021/10/19 06:57:27;;;;;;;29.93;14.03;;;7.90;93.90;;;;;;5006372;28;20209;-75
2021/10/19 06:59:53;;;;;;;27.90;13.57;;;8.00;94.00;;;;;;5022103;28;20029;-75
2021/10/19 07:02:19;;;;;;;30.03;13.10;;;7.90;93.90;;;;;;5006536;28;20029;-75
2021/10/19 07:04:45;;;;;;;30.17;12.85;;;8.00;93.70;;;;;;5022448;28;20025;-75
2021/10/19 07:07:10;;;;;;;28.88;13.43;;;8.00;93.80;;;;;;5022328;28;20025;-75
2021/10/19 07:09:36;;;;;;;25.73;12.95;;;8.10;93.80;;;;;;5023387;28;20097;-75
2021/10/19 07:12:03;;;;;;;30.25;13.63;;;8.10;93.60;;;;;;5022393;28;20375;-75
2021/10/19 07:14:30;;;;;;;29.17;13.27;;;8.00;93.70;;;;;;5022388;28;20021;-75
2021/10/19 07:16:55;;;;;;;25.13;12.88;;;8.10;94.00;;;;;;5002880;28;20041;-75
2021/10/19 07:19:21;;;;;;;25.55;12.10;;;8.10;94.00;;;;;;5003839;28;20034;-75
2021/10/19 07:21:49;;;;;;;25.38;12.32;;;8.20;94.10;;;;;;5003124;28;20305;-74
2021/10/19 07:24:14;;;;;;;;;;;8.20;93.90;;;;;;5002649;28;20026;-75
2021/10/19 07:26:40;;;;;;;29.15;12.85;;;8.20;93.80;;;;;;5003772;28;19960;-75
2021/10/19 07:29:06;;;;;;;27.70;13.23;;;8.20;93.80;;;;;;5003957;28;20286;-75
2021/10/19 07:31:32;;;;;;;33.40;15.07;;;8.30;93.90;;;;;;5003745;28;20053;-75
2021/10/19 07:33:57;;;;;;;29.88;13.43;;;8.30;93.90;;;;;;5002490;28;20260;-75
2021/10/19 07:36:23;;;;;;;28.92;14.70;;;8.20;94.00;;;;;;5002574;28;20018;-74
2021/10/19 07:38:52;;;;;;;26.13;13.65;;;8.40;94.00;;;;;;5002063;28;21985;-75
2021/10/19 07:41:18;;;;;;;23.58;11.45;;;8.40;94.00;;;;;;5002394;28;20023;-75
2021/10/19 07:43:43;;;;;;;25.15;12.60;;;8.40;93.80;;;;;;5002247;28;20018;-75
2021/10/19 07:46:09;;;;;;;25.90;12.98;;;8.50;93.80;;;;;;5004230;28;20141;-74
2021/10/19 07:48:35;;;;;;;25.92;12.25;;;8.50;93.80;;;;;;5023137;28;20030;-74
2021/10/19 07:51:01;;;;;;;29.77;13.60;;;8.60;93.90;;;;;;5023059;28;20470;-74
2021/10/19 07:53:27;;;;;;;26.83;12.98;;;8.60;93.90;;;;;;5022352;28;20089;-75
2021/10/19 07:55:52;;;;;;;22.65;11.95;;;8.70;93.90;;;;;;5022966;28;20201;-75
2021/10/19 07:58:18;;;;;;;26.30;14.15;;;8.70;93.80;;;;;;5005462;28;20022;-74
2021/10/19 08:00:44;;;;;;;25.52;13.35;;;8.80;94.00;;;;;;5022945;28;20049;-74
2021/10/19 08:03:10;;;;;;;38.83;19.17;;;8.80;94.00;;;;;;5021685;28;20367;-75
2021/10/19 08:05:37;;;;;;;28.27;15.27;;;8.90;93.90;;;;;;5021785;28;20324;-75
2021/10/19 08:08:14;;;;;;;29.17;14.35;;;8.90;93.90;;;;;;5021479;28;20022;-75
2021/10/19 08:10:42;;;;;;;;;;;8.90;93.70;;;;;;5022067;28;20021;-75
2021/10/19 08:13:09;;;;;;;23.08;11.63;;;8.90;93.70;;;;;;5021297;28;20015;-75
2021/10/19 08:15:36;;;;;;;25.05;12.98;;;8.90;93.70;;;;;;5021515;28;20473;-75
2021/10/19 08:18:03;;;;;;;23.90;11.90;;;9.00;93.80;;;;;;5022601;28;20055;-75
2021/10/19 08:20:29;;;;;;;;;;;9.10;94.10;;;;;;5021555;28;20356;-74
2021/10/19 08:22:54;;;;;;;24.13;13.93;;;9.10;93.90;;;;;;5022088;28;19913;-74
2021/10/19 08:25:20;;;;;;;22.10;12.10;;;9.10;93.90;;;;;;5022713;28;20026;-74
2021/10/19 08:27:46;;;;;;;25.75;14.13;;;9.10;93.90;;;;;;5005155;28;20042;-74
2021/10/19 08:30:17;;;;;;;26.80;12.73;;;9.20;94.10;;;;;;5005215;28;20060;-74
2021/10/19 08:32:42;;;;;;;27.25;14.18;;;9.30;93.90;;;;;;5005244;28;20026;-74
2021/10/19 08:35:09;;;;;;;27.30;14.35;;;9.30;94.00;;;;;;5004533;28;20097;-74
2021/10/19 08:37:35;;;;;;;27.42;14.80;;;9.40;94.20;;;;;;5021171;28;20026;-74
2021/10/19 08:40:01;;;;;;;26.60;13.43;;;9.40;94.20;;;;;;5022200;28;20071;-75
2021/10/19 08:42:27;;;;;;;28.03;14.77;;;9.40;94.00;;;;;;5021088;28;20395;-74
2021/10/19 08:44:52;;;;;;;27.90;13.93;;;9.50;94.00;;;;;;5021213;28;20072;-74
2021/10/19 08:47:20;;;;;;;28.33;14.80;;;9.50;94.10;;;;;;5021785;28;20216;-74
2021/10/19 08:49:45;;;;;;;23.73;14.02;;;9.60;94.10;;;;;;5021003;28;20026;-74
2021/10/19 08:52:11;;;;;;;19.52;11.43;;;9.60;93.40;;;;;;5020934;28;20076;-74
2021/10/19 08:54:37;;;;;;;23.08;13.23;;;9.60;93.50;;;;;;5020489;28;20030;-74
2021/10/19 08:57:11;;;;;;;31.98;14.38;;;9.60;93.60;;;;;;5020867;28;20026;-74
2021/10/19 08:59:44;;;;;;;28.33;14.10;;;9.60;93.70;;;;;;5005373;28;20037;-75
2021/10/19 09:02:10;;;;;;;26.23;15.27;;;9.70;93.80;;;;;;5020478;28;20018;-75
2021/10/19 09:04:36;;;;;;;32.93;19.07;;;9.70;93.80;;;;;;5021471;28;20329;-75
2021/10/19 09:07:02;;;;;;;32.05;15.65;;;9.80;93.80;;;;;;5020713;28;20033;-74
2021/10/19 09:09:28;;;;;;;26.35;13.90;;;9.80;93.50;;;;;;5021983;28;20081;-74
2021/10/19 09:11:56;;;;;;;24.85;14.15;;;9.80;93.40;;;;;;5020655;28;20021;-74
2021/10/19 09:14:34;;;;;;;27.15;15.23;;;9.80;93.50;;;;;;5020628;28;20072;-75
2021/10/19 09:17:00;;;;;;;;;;;9.90;93.90;;;;;;4985961;28;20061;-74
2021/10/19 09:19:26;;;;;;;25.50;12.05;;;9.90;93.60;;;;;;5017490;28;20132;-75
2021/10/19 09:22:13;;;;;;;28.33;13.87;;;9.90;93.30;;;;;;4970496;28;20349;-75
2021/10/19 09:24:41;;;;;;;23.75;12.73;;;9.90;93.60;;;;;;5005609;28;20340;-74
2021/10/19 09:27:12;;;;;;;25.08;13.30;;;10.00;93.40;;;;;;5005087;28;20253;-75
2021/10/19 09:29:41;;;;;;;24.02;13.65;;;10.00;93.10;;;;;;5005068;28;20030;-75
2021/10/19 09:32:07;;;;;;;28.67;15.20;;;9.90;93.30;;;;;;5006027;28;20034;-75
2021/10/19 09:34:34;;;;;;;23.88;13.18;;;10.00;93.50;;;;;;5004568;28;20029;-75
2021/10/19 09:37:01;;;;;;;23.60;13.45;;;10.00;93.80;;;;;;4988824;28;20034;-75
2021/10/19 09:39:37;;;;;;;26.95;13.93;;;10.10;94.00;;;;;;4988419;28;20367;-75
2021/10/19 09:42:09;;;;;;;25.80;14.77;;;10.10;94.20;;;;;;5004732;28;20057;-75
2021/10/19 09:44:36;;;;;;;30.52;16.80;;;10.20;94.30;;;;;;4988745;28;20321;-75
2021/10/19 09:47:02;;;;;;;32.15;18.08;;;10.20;94.00;;;;;;4995211;28;20040;-75
2021/10/19 09:49:30;;;;;;;33.72;18.33;;;10.30;94.20;;;;;;5025382;28;20030;-75
2021/10/19 09:52:00;;;;;;;27.38;14.15;;;10.30;94.00;;;;;;5024005;28;20068;-75
2021/10/19 09:54:29;;;;;;;24.38;13.60;;;10.40;93.90;;;;;;5007546;28;20332;-75
2021/10/19 09:56:57;;;;;;;30.40;16.40;;;10.50;93.90;;;;;;5024393;28;20033;-75
2021/10/19 09:59:23;;;;;;;27.90;15.70;;;10.60;94.00;;;;;;5024040;28;20041;-75
2021/10/19 10:01:50;;;;;;;23.77;12.90;;;10.60;93.60;;;;;;5024175;28;20300;-75
2021/10/19 10:04:15;;;;;;;30.42;16.48;;;10.50;93.80;;;;;;5023798;28;20022;-75
2021/10/19 10:06:41;;;;;;;25.17;15.23;;;10.50;93.70;;;;;;5024017;28;20037;-75
2021/10/19 10:09:07;;;;;;;25.97;14.43;;;10.50;93.80;;;;;;5023789;28;20220;-75
2021/10/19 10:11:33;;;;;;;25.17;14.50;;;10.40;93.70;;;;;;5025017;28;20339;-75
2021/10/19 10:14:02;;;;;;;29.27;15.33;;;10.40;93.80;;;;;;5023285;28;20021;-75
2021/10/19 10:16:28;;;;;;;24.40;14.90;;;10.50;94.00;;;;;;5007631;28;20498;-74
2021/10/19 10:18:54;;;;;;;25.60;13.32;;;10.50;94.30;;;;;;5023652;28;20328;-74
2021/10/19 10:21:23;;;;;;;26.77;14.32;;;10.50;94.10;;;;;;5023721;28;20064;-74
2021/10/19 10:24:03;;;;;;;22.67;13.63;;;10.50;93.90;;;;;;5023211;28;20022;-75
2021/10/19 10:26:32;;;;;;;25.05;14.30;;;10.50;93.90;;;;;;5008059;28;20088;-74
2021/10/19 10:29:12;;;;;;;22.95;13.00;;;10.60;93.90;;;;;;5023689;28;20045;-74
2021/10/19 10:31:46;;;;;;;25.70;14.40;;;10.60;93.80;;;;;;5023469;28;20025;-75
2021/10/19 10:34:12;;;;;;;25.27;13.27;;;10.60;93.80;;;;;;5021837;28;20228;-75
2021/10/19 10:36:42;;;;;;;24.97;15.47;;;10.60;93.90;;;;;;5023328;28;20037;-75
2021/10/19 10:39:08;;;;;;;23.05;13.65;;;10.60;94.00;;;;;;5022997;28;20032;-75
2021/10/19 10:41:39;;;;;;;26.87;14.70;;;10.50;94.00;;;;;;5006871;28;20025;-75
2021/10/19 10:44:06;;;;;;;23.52;13.63;;;10.50;94.00;;;;;;5006616;28;20022;-75
2021/10/19 10:46:32;;;;;;;25.25;14.60;;;10.50;94.30;;;;;;5006102;28;20390;-75
2021/10/19 10:48:58;;;;;;;24.63;14.32;;;10.60;94.40;;;;;;5023229;28;20080;-75
2021/10/19 10:51:29;;;;;;;28.38;15.43;;;10.60;94.50;;;;;;5023196;28;20022;-75
2021/10/19 10:53:55;;;;;;;27.02;14.38;;;10.60;94.60;;;;;;5022384;28;20064;-75
2021/10/19 10:56:21;;;;;;;23.57;13.27;;;10.60;94.80;;;;;;5006607;28;20240;-75
2021/10/19 10:58:49;;;;;;;24.75;12.75;;;10.70;94.90;;;;;;5023852;28;20025;-75
2021/10/19 11:01:28;;;;;;;24.83;13.73;;;10.70;94.30;;;;;;5023113;28;20048;-75
2021/10/19 11:04:07;;;;;;;22.98;14.38;;;10.70;94.40;;;;;;5022457;28;20025;-75
2021/10/19 11:06:34;;;;;;;29.40;16.13;;;10.70;94.50;;;;;;5024427;28;20014;-75
2021/10/19 11:09:02;;;;;;;;;;;10.80;94.60;;;;;;5006832;28;20052;-75
2021/10/19 11:11:31;;;;;;;24.17;14.43;;;10.80;94.30;;;;;;5039105;28;19905;-75
2021/10/19 11:14:03;;;;;;;26.52;14.48;;;10.80;94.30;;;;;;5006224;28;20037;-74
2021/10/19 11:16:39;;;;;;;24.65;14.57;;;10.90;94.30;;;;;;5022853;28;20343;-75
2021/10/19 11:19:19;;;;;;;21.88;12.55;;;11.00;94.40;;;;;;5023931;28;20339;-75
2021/10/19 11:21:45;;;;;;;24.30;13.43;;;11.10;94.60;;;;;;5022779;28;20030;-75
2021/10/19 11:24:11;;;;;;;24.77;14.98;;;11.10;94.20;;;;;;5022581;28;20026;-75
2021/10/19 11:26:37;;;;;;;26.80;15.03;;;11.20;94.00;;;;;;5022630;28;20026;-75
2021/10/19 11:29:03;;;;;;;26.70;15.35;;;11.20;94.00;;;;;;5006250;28;20460;-75
2021/10/19 11:31:30;;;;;;;23.45;13.05;;;11.20;94.00;;;;;;5022581;28;20033;-76
2021/10/19 11:33:56;;;;;;;24.98;14.90;;;11.20;94.20;;;;;;4989835;28;20315;-75
2021/10/19 11:36:23;;;;;;;22.27;12.83;;;11.30;94.30;;;;;;5023533;28;20036;-75
2021/10/19 11:38:53;;;;;;;;;;;11.30;94.30;;;;;;5022575;28;20232;-75
2021/10/19 11:41:39;;;;;;;20.80;11.55;;;11.40;94.50;;;;;;5038950;28;19909;-75
2021/10/19 11:44:06;;;;;;;22.17;13.30;;;11.50;94.40;;;;;;5021872;28;20252;-75
2021/10/19 11:46:35;;;;;;;;;;;11.50;94.50;;;;;;5022680;28;20030;-75
2021/10/19 11:49:21;;;;;;;23.20;12.57;;;11.50;94.20;;;;;;5038327;28;19914;-75
2021/10/19 11:51:51;;;;;;;20.85;12.18;;;11.50;94.40;;;;;;5005692;28;20111;-75
2021/10/19 11:54:18;;;;;;;27.33;13.15;;;11.60;94.60;;;;;;5005466;28;20030;-75
2021/10/19 11:56:59;;;;;;;21.88;12.40;;;11.60;94.70;;;;;;5022061;28;20021;-75
2021/10/19 11:59:25;;;;;;;22.40;12.13;;;11.60;94.80;;;;;;5005917;28;20068;-75
2021/10/19 12:01:53;;;;;;;18.77;11.67;;;11.60;95.00;;;;;;5022137;28;20081;-75
2021/10/19 12:04:23;;;;;;;22.00;12.50;;;11.60;95.10;;;;;;5021848;28;20068;-75
2021/10/19 12:06:51;;;;;;;24.58;13.32;;;11.60;95.10;;;;;;5021861;28;20033;-75
2021/10/19 12:09:23;;;;;;;27.90;13.80;;;11.60;95.60;;;;;;5005465;28;20037;-75
2021/10/19 12:11:56;;;;;;;23.58;12.98;;;11.60;95.60;;;;;;5021900;28;20022;-75
2021/10/19 12:14:32;;;;;;;23.88;12.48;;;11.60;95.50;;;;;;5021777;28;20081;-75
2021/10/19 12:17:03;;;;;;;19.70;12.50;;;11.60;95.40;;;;;;5021694;28;20060;-75
2021/10/19 12:19:30;;;;;;;24.27;13.45;;;11.60;95.40;;;;;;5022900;28;20092;-75
2021/10/19 12:21:59;;;;;;;27.50;16.23;;;11.60;95.40;;;;;;5021728;28;20029;-75
2021/10/19 12:24:25;;;;;;;22.33;12.30;;;11.60;95.50;;;;;;5021006;28;20025;-75
2021/10/19 12:27:02;;;;;;;19.53;13.17;;;11.70;95.60;;;;;;5005383;28;20026;-75
2021/10/19 12:29:30;;;;;;;24.40;12.98;;;11.70;95.40;;;;;;5021786;28;20030;-75
2021/10/19 12:31:56;;;;;;;21.40;12.02;;;11.70;95.60;;;;;;5021589;28;20090;-75
2021/10/19 12:34:27;;;;;;;18.73;10.63;;;11.80;95.70;;;;;;5021370;28;20209;-75
2021/10/19 12:36:59;;;;;;;21.88;12.88;;;11.80;95.80;;;;;;5021409;28;20029;-75
2021/10/19 12:39:25;;;;;;;16.50;9.90;;;11.70;96.00;;;;;;5021265;28;20030;-75